sensor_id;sensor_type;location;lat;lon;timestamp;pressure;altitude;pressure_sealevel;temperature;humidity
75513;BME280;64090;49.770;18.760;2023-07-02T00:01:12;96706.41;;;16.91;86.36
75513;BME280;64090;49.770;18.760;2023-07-02T00:04:41;96700.52;;;16.81;86.07
75513;BME280;64090;49.770;18.760;2023-07-02T00:07:54;96703.29;;;16.71;86.36
75513;BME280;64090;49.770;18.760;2023-07-02T00:11:18;96703.18;;;16.62;86.21
75513;BME280;64090;49.770;18.760;2023-07-02T00:14:28;96705.13;;;16.54;86.56
75513;BME280;64090;49.770;18.760;2023-07-02T00:18:02;96704.42;;;16.44;86.39
75513;BME280;64090;49.770;18.760;2023-07-02T00:21:13;96703.73;;;16.35;86.44
75513;BME280;64090;49.770;18.760;2023-07-02T00:24:41;96706.19;;;16.27;86.61
75513;BME280;64090;49.770;18.760;2023-07-02T00:27:45;96705.23;;;16.21;86.47
75513;BME280;64090;49.770;18.760;2023-07-02T00:31:09;96702.38;;;16.14;86.82
75513;BME280;64090;49.770;18.760;2023-07-02T00:34:13;96696.84;;;16.08;87.12
75513;BME280;64090;49.770;18.760;2023-07-02T00:37:23;96696.73;;;16.03;87.22
75513;BME280;64090;49.770;18.760;2023-07-02T00:40:27;96694.73;;;15.99;87.19
75513;BME280;64090;49.770;18.760;2023-07-02T00:43:52;96698.33;;;15.95;87.89
75513;BME280;64090;49.770;18.760;2023-07-02T00:47:19;96692.95;;;15.90;87.46
75513;BME280;64090;49.770;18.760;2023-07-02T00:50:46;96690.84;;;15.85;87.61
75513;BME280;64090;49.770;18.760;2023-07-02T00:53:52;96692.13;;;15.82;87.83
75513;BME280;64090;49.770;18.760;2023-07-02T00:57:07;96690.45;;;15.78;88.12
75513;BME280;64090;49.770;18.760;2023-07-02T01:00:31;96692.54;;;15.74;88.48
75513;BME280;64090;49.770;18.760;2023-07-02T01:03:52;96693.17;;;15.71;88.70
75513;BME280;64090;49.770;18.760;2023-07-02T01:07:24;96692.59;;;15.67;88.17
75513;BME280;64090;49.770;18.760;2023-07-02T01:10:30;96688.23;;;15.64;88.97
75513;BME280;64090;49.770;18.760;2023-07-02T01:13:35;96686.75;;;15.63;88.67
75513;BME280;64090;49.770;18.760;2023-07-02T01:16:41;96686.42;;;15.61;88.39
75513;BME280;64090;49.770;18.760;2023-07-02T01:20:09;96682.77;;;15.60;88.59
75513;BME280;64090;49.770;18.760;2023-07-02T01:23:24;96679.13;;;15.62;88.32
75513;BME280;64090;49.770;18.760;2023-07-02T01:26:31;96681.33;;;15.66;88.27
75513;BME280;64090;49.770;18.760;2023-07-02T01:30:31;96683.02;;;15.70;88.61
75513;BME280;64090;49.770;18.760;2023-07-02T01:33:55;96680.74;;;15.72;88.52
75513;BME280;64090;49.770;18.760;2023-07-02T01:37:17;96674.21;;;15.74;88.37
75513;BME280;64090;49.770;18.760;2023-07-02T01:40:22;96675.45;;;15.77;88.34
75513;BME280;64090;49.770;18.760;2023-07-02T01:43:25;96675.34;;;15.78;87.96
75513;BME280;64090;49.770;18.760;2023-07-02T01:46:30;96674.33;;;15.78;88.30
75513;BME280;64090;49.770;18.760;2023-07-02T01:49:35;96677.60;;;15.80;88.38
75513;BME280;64090;49.770;18.760;2023-07-02T01:53:21;96681.63;;;15.81;88.42
75513;BME280;64090;49.770;18.760;2023-07-02T01:56:28;96677.76;;;15.81;88.14
75513;BME280;64090;49.770;18.760;2023-07-02T01:59:36;96678.41;;;15.80;88.02
75513;BME280;64090;49.770;18.760;2023-07-02T02:02:57;96680.05;;;15.76;87.76
75513;BME280;64090;49.770;18.760;2023-07-02T02:06:02;96677.85;;;15.73;87.76
75513;BME280;64090;49.770;18.760;2023-07-02T02:09:06;96675.87;;;15.67;88.00
75513;BME280;64090;49.770;18.760;2023-07-02T02:12:34;96673.33;;;15.59;87.90
75513;BME280;64090;49.770;18.760;2023-07-02T02:15:38;96673.19;;;15.49;87.86
75513;BME280;64090;49.770;18.760;2023-07-02T02:18:44;96676.70;;;15.40;87.80
75513;BME280;64090;49.770;18.760;2023-07-02T02:21:51;96681.11;;;15.30;87.64
75513;BME280;64090;49.770;18.760;2023-07-02T02:24:56;96680.63;;;15.20;87.64
75513;BME280;64090;49.770;18.760;2023-07-02T02:28:04;96676.36;;;15.12;87.84
75513;BME280;64090;49.770;18.760;2023-07-02T02:31:09;96679.44;;;15.05;87.53
75513;BME280;64090;49.770;18.760;2023-07-02T02:34:14;96672.92;;;14.99;87.64
75513;BME280;64090;49.770;18.760;2023-07-02T02:37:18;96678.46;;;14.94;87.64
75513;BME280;64090;49.770;18.760;2023-07-02T02:40:21;96674.22;;;14.91;88.16
75513;BME280;64090;49.770;18.760;2023-07-02T02:43:24;96673.52;;;14.90;88.75
75513;BME280;64090;49.770;18.760;2023-07-02T02:46:26;96671.48;;;14.89;88.40
75513;BME280;64090;49.770;18.760;2023-07-02T02:49:30;96668.91;;;14.88;88.29
75513;BME280;64090;49.770;18.760;2023-07-02T02:52:33;96672.02;;;14.89;88.58
75513;BME280;64090;49.770;18.760;2023-07-02T02:55:36;96673.21;;;14.93;88.11
75513;BME280;64090;49.770;18.760;2023-07-02T02:58:39;96670.36;;;14.99;88.11
75513;BME280;64090;49.770;18.760;2023-07-02T03:01:43;96673.89;;;15.11;88.10
75513;BME280;64090;49.770;18.760;2023-07-02T03:04:46;96671.80;;;15.24;87.95
75513;BME280;64090;49.770;18.760;2023-07-02T03:07:50;96669.76;;;15.47;87.74
75513;BME280;64090;49.770;18.760;2023-07-02T03:10:53;96672.92;;;15.75;87.55
75513;BME280;64090;49.770;18.760;2023-07-02T03:13:56;96668.09;;;16.12;87.36
75513;BME280;64090;49.770;18.760;2023-07-02T03:16:59;96670.56;;;16.62;86.41
75513;BME280;64090;49.770;18.760;2023-07-02T03:20:03;96671.50;;;17.09;85.65
75513;BME280;64090;49.770;18.760;2023-07-02T03:23:10;96670.27;;;17.53;84.88
75513;BME280;64090;49.770;18.760;2023-07-02T03:26:13;96666.83;;;17.94;84.26
75513;BME280;64090;49.770;18.760;2023-07-02T03:29:16;96670.35;;;18.37;83.02
75513;BME280;64090;49.770;18.760;2023-07-02T03:32:19;96672.71;;;18.81;82.25
75513;BME280;64090;49.770;18.760;2023-07-02T03:35:21;96680.41;;;19.29;81.31
75513;BME280;64090;49.770;18.760;2023-07-02T03:38:24;96683.92;;;19.77;80.43
75513;BME280;64090;49.770;18.760;2023-07-02T03:41:29;96686.13;;;20.20;78.74
75513;BME280;64090;49.770;18.760;2023-07-02T03:44:31;96688.17;;;20.60;77.68
75513;BME280;64090;49.770;18.760;2023-07-02T03:47:34;96686.63;;;20.93;76.71
75513;BME280;64090;49.770;18.760;2023-07-02T03:50:38;96688.39;;;21.15;75.38
75513;BME280;64090;49.770;18.760;2023-07-02T03:53:41;96686.02;;;21.31;75.25
75513;BME280;64090;49.770;18.760;2023-07-02T03:56:44;96690.59;;;21.44;74.07
75513;BME280;64090;49.770;18.760;2023-07-02T03:59:47;96685.65;;;21.79;73.14
75513;BME280;64090;49.770;18.760;2023-07-02T04:02:50;96689.60;;;21.75;73.40
75513;BME280;64090;49.770;18.760;2023-07-02T04:05:53;96690.27;;;21.92;72.63
75513;BME280;64090;49.770;18.760;2023-07-02T04:08:56;96688.02;;;21.57;72.31
75513;BME280;64090;49.770;18.760;2023-07-02T04:12:00;96687.10;;;21.29;72.44
75513;BME280;64090;49.770;18.760;2023-07-02T04:15:04;96683.75;;;21.02;72.57
75513;BME280;64090;49.770;18.760;2023-07-02T04:18:07;96685.46;;;20.89;72.79
75513;BME280;64090;49.770;18.760;2023-07-02T04:21:11;96692.63;;;20.84;72.19
75513;BME280;64090;49.770;18.760;2023-07-02T04:24:14;96691.73;;;21.09;71.44
75513;BME280;64090;49.770;18.760;2023-07-02T04:27:17;96696.08;;;21.34;70.35
75513;BME280;64090;49.770;18.760;2023-07-02T04:30:40;96698.39;;;21.47;68.07
75513;BME280;64090;49.770;18.760;2023-07-02T04:33:44;96701.98;;;22.00;65.35
75513;BME280;64090;49.770;18.760;2023-07-02T04:36:47;96701.25;;;22.37;66.74
75513;BME280;64090;49.770;18.760;2023-07-02T04:39:52;96703.42;;;23.11;62.69
75513;BME280;64090;49.770;18.760;2023-07-02T04:42:55;96712.65;;;23.67;64.03
75513;BME280;64090;49.770;18.760;2023-07-02T04:46:00;96713.83;;;23.67;62.92
75513;BME280;64090;49.770;18.760;2023-07-02T04:49:04;96715.27;;;23.50;63.23
75513;BME280;64090;49.770;18.760;2023-07-02T04:52:07;96713.55;;;23.30;63.84
75513;BME280;64090;49.770;18.760;2023-07-02T04:55:10;96709.62;;;23.17;62.97
75513;BME280;64090;49.770;18.760;2023-07-02T04:58:13;96709.55;;;23.38;61.97
75513;BME280;64090;49.770;18.760;2023-07-02T05:01:16;96712.97;;;23.69;62.79
75513;BME280;64090;49.770;18.760;2023-07-02T05:04:18;96713.72;;;23.81;61.76
75513;BME280;64090;49.770;18.760;2023-07-02T05:07:21;96712.94;;;23.89;60.23
75513;BME280;64090;49.770;18.760;2023-07-02T05:10:24;96716.87;;;24.07;60.27
75513;BME280;64090;49.770;18.760;2023-07-02T05:13:27;96718.77;;;24.23;59.29
75513;BME280;64090;49.770;18.760;2023-07-02T05:16:30;96719.31;;;24.41;59.05
75513;BME280;64090;49.770;18.760;2023-07-02T05:19:33;96717.54;;;24.56;56.89
75513;BME280;64090;49.770;18.760;2023-07-02T05:22:36;96725.50;;;24.55;57.29
75513;BME280;64090;49.770;18.760;2023-07-02T05:25:39;96723.89;;;24.68;58.30
75513;BME280;64090;49.770;18.760;2023-07-02T05:28:41;96724.94;;;24.80;56.18
75513;BME280;64090;49.770;18.760;2023-07-02T05:31:44;96726.22;;;24.68;56.29
75513;BME280;64090;49.770;18.760;2023-07-02T05:34:48;96727.09;;;24.56;56.79
75513;BME280;64090;49.770;18.760;2023-07-02T05:37:50;96732.61;;;24.37;56.90
75513;BME280;64090;49.770;18.760;2023-07-02T05:40:53;96733.55;;;24.14;57.20
75513;BME280;64090;49.770;18.760;2023-07-02T05:43:57;96733.11;;;23.89;58.27
75513;BME280;64090;49.770;18.760;2023-07-02T05:47:00;96737.75;;;23.69;58.65
75513;BME280;64090;49.770;18.760;2023-07-02T05:50:04;96743.86;;;23.47;57.68
75513;BME280;64090;49.770;18.760;2023-07-02T05:53:06;96739.11;;;23.21;57.85
75513;BME280;64090;49.770;18.760;2023-07-02T05:56:11;96745.78;;;23.07;58.55
75513;BME280;64090;49.770;18.760;2023-07-02T05:59:14;96747.66;;;23.07;58.56
75513;BME280;64090;49.770;18.760;2023-07-02T06:02:20;96751.40;;;23.14;59.00
75513;BME280;64090;49.770;18.760;2023-07-02T06:05:23;96757.66;;;23.17;59.17
75513;BME280;64090;49.770;18.760;2023-07-02T06:08:26;96756.73;;;23.32;59.26
75513;BME280;64090;49.770;18.760;2023-07-02T06:11:29;96754.46;;;23.40;57.87
75513;BME280;64090;49.770;18.760;2023-07-02T06:14:31;96755.02;;;23.32;57.56
75513;BME280;64090;49.770;18.760;2023-07-02T06:17:34;96758.02;;;23.41;56.79
75513;BME280;64090;49.770;18.760;2023-07-02T06:20:38;96759.42;;;23.61;57.35
75513;BME280;64090;49.770;18.760;2023-07-02T06:23:43;96760.08;;;23.97;56.58
75513;BME280;64090;49.770;18.760;2023-07-02T06:26:46;96764.65;;;24.47;55.07
75513;BME280;64090;49.770;18.760;2023-07-02T06:29:49;96765.36;;;25.11;54.79
75513;BME280;64090;49.770;18.760;2023-07-02T06:32:54;96762.94;;;25.63;52.95
75513;BME280;64090;49.770;18.760;2023-07-02T06:35:57;96769.76;;;25.79;52.21
75513;BME280;64090;49.770;18.760;2023-07-02T06:39:00;96772.98;;;25.69;51.42
75513;BME280;64090;49.770;18.760;2023-07-02T06:42:03;96777.30;;;25.60;50.96
75513;BME280;64090;49.770;18.760;2023-07-02T06:45:06;96783.18;;;25.54;51.27
75513;BME280;64090;49.770;18.760;2023-07-02T06:48:09;96783.75;;;25.34;51.48
75513;BME280;64090;49.770;18.760;2023-07-02T06:51:12;96786.98;;;25.08;51.36
75513;BME280;64090;49.770;18.760;2023-07-02T06:54:17;96797.84;;;24.72;52.13
75513;BME280;64090;49.770;18.760;2023-07-02T06:57:20;96794.08;;;24.19;52.89
75513;BME280;64090;49.770;18.760;2023-07-02T07:00:23;96792.27;;;23.85;54.19
75513;BME280;64090;49.770;18.760;2023-07-02T07:03:26;96792.95;;;23.41;55.14
75513;BME280;64090;49.770;18.760;2023-07-02T07:06:29;96792.74;;;23.11;55.92
75513;BME280;64090;49.770;18.760;2023-07-02T07:09:32;96799.55;;;22.89;57.19
75513;BME280;64090;49.770;18.760;2023-07-02T07:12:35;96803.98;;;22.63;57.52
75513;BME280;64090;49.770;18.760;2023-07-02T07:15:38;96806.17;;;22.43;57.64
75513;BME280;64090;49.770;18.760;2023-07-02T07:18:40;96809.73;;;22.24;58.02
75513;BME280;64090;49.770;18.760;2023-07-02T07:21:43;96812.52;;;22.01;58.14
75513;BME280;64090;49.770;18.760;2023-07-02T07:24:46;96813.02;;;21.84;58.41
75513;BME280;64090;49.770;18.760;2023-07-02T07:27:49;96812.44;;;21.72;58.36
75513;BME280;64090;49.770;18.760;2023-07-02T07:30:52;96818.14;;;21.77;58.15
75513;BME280;64090;49.770;18.760;2023-07-02T07:33:55;96818.97;;;21.95;58.12
75513;BME280;64090;49.770;18.760;2023-07-02T07:36:57;96826.81;;;22.26;57.56
75513;BME280;64090;49.770;18.760;2023-07-02T07:40:00;96830.27;;;22.58;56.85
75513;BME280;64090;49.770;18.760;2023-07-02T07:43:03;96832.61;;;22.87;54.96
75513;BME280;64090;49.770;18.760;2023-07-02T07:46:06;96839.17;;;22.99;54.92
75513;BME280;64090;49.770;18.760;2023-07-02T07:49:09;96839.91;;;22.84;54.77
75513;BME280;64090;49.770;18.760;2023-07-02T07:52:11;96847.05;;;22.57;55.92
75513;BME280;64090;49.770;18.760;2023-07-02T07:55:14;96848.20;;;22.06;57.51
75513;BME280;64090;49.770;18.760;2023-07-02T07:58:17;96850.68;;;21.84;58.33
75513;BME280;64090;49.770;18.760;2023-07-02T08:01:20;96852.48;;;21.78;58.99
75513;BME280;64090;49.770;18.760;2023-07-02T08:04:23;96861.28;;;21.58;60.10
75513;BME280;64090;49.770;18.760;2023-07-02T08:07:26;96865.45;;;21.61;60.23
75513;BME280;64090;49.770;18.760;2023-07-02T08:10:29;96869.23;;;21.55;60.48
75513;BME280;64090;49.770;18.760;2023-07-02T08:13:31;96868.33;;;21.79;60.05
75513;BME280;64090;49.770;18.760;2023-07-02T08:16:34;96874.05;;;22.33;59.65
75513;BME280;64090;49.770;18.760;2023-07-02T08:19:37;96874.21;;;22.64;58.66
75513;BME280;64090;49.770;18.760;2023-07-02T08:22:40;96875.08;;;22.94;58.23
75513;BME280;64090;49.770;18.760;2023-07-02T08:25:43;96878.26;;;23.16;58.68
75513;BME280;64090;49.770;18.760;2023-07-02T08:28:46;96877.09;;;23.24;58.04
75513;BME280;64090;49.770;18.760;2023-07-02T08:31:49;96876.31;;;23.25;57.70
75513;BME280;64090;49.770;18.760;2023-07-02T08:34:52;96869.15;;;23.44;57.42
75513;BME280;64090;49.770;18.760;2023-07-02T08:37:55;96867.83;;;24.16;57.19
75513;BME280;64090;49.770;18.760;2023-07-02T08:40:59;96872.80;;;24.79;55.95
75513;BME280;64090;49.770;18.760;2023-07-02T08:44:02;96878.58;;;24.96;55.16
75513;BME280;64090;49.770;18.760;2023-07-02T08:47:07;96875.48;;;25.30;54.25
75513;BME280;64090;49.770;18.760;2023-07-02T08:50:10;96873.20;;;25.51;54.02
75513;BME280;64090;49.770;18.760;2023-07-02T08:53:14;96873.86;;;25.77;52.94
75513;BME280;64090;49.770;18.760;2023-07-02T08:56:16;96872.56;;;25.74;53.80
75513;BME280;64090;49.770;18.760;2023-07-02T08:59:19;96874.41;;;25.52;53.66
75513;BME280;64090;49.770;18.760;2023-07-02T09:02:32;96876.86;;;25.31;53.69
75513;BME280;64090;49.770;18.760;2023-07-02T09:05:36;96879.30;;;25.25;54.41
75513;BME280;64090;49.770;18.760;2023-07-02T09:08:39;96878.73;;;24.98;53.80
75513;BME280;64090;49.770;18.760;2023-07-02T09:11:51;96874.52;;;25.15;53.74
75513;BME280;64090;49.770;18.760;2023-07-02T09:15:04;96875.09;;;25.51;53.59
75513;BME280;64090;49.770;18.760;2023-07-02T09:18:19;96874.83;;;25.87;51.65
75513;BME280;64090;49.770;18.760;2023-07-02T09:21:25;96874.33;;;25.61;51.52
75513;BME280;64090;49.770;18.760;2023-07-02T09:24:30;96872.98;;;25.38;52.17
75513;BME280;64090;49.770;18.760;2023-07-02T09:27:40;96869.21;;;25.21;52.61
75513;BME280;64090;49.770;18.760;2023-07-02T09:30:55;96874.20;;;25.15;52.74
75513;BME280;64090;49.770;18.760;2023-07-02T09:34:02;96873.82;;;25.26;52.90
75513;BME280;64090;49.770;18.760;2023-07-02T09:37:05;96872.88;;;25.41;53.77
75513;BME280;64090;49.770;18.760;2023-07-02T09:40:09;96866.27;;;25.99;53.65
75513;BME280;64090;49.770;18.760;2023-07-02T09:43:12;96855.52;;;26.50;52.77
75513;BME280;64090;49.770;18.760;2023-07-02T09:46:15;96853.06;;;26.47;50.67
75513;BME280;64090;49.770;18.760;2023-07-02T09:49:20;96853.85;;;26.67;51.98
75513;BME280;64090;49.770;18.760;2023-07-02T09:52:22;96846.35;;;26.87;50.26
75513;BME280;64090;49.770;18.760;2023-07-02T09:55:31;96843.37;;;27.01;51.47
75513;BME280;64090;49.770;18.760;2023-07-02T09:58:37;96847.52;;;27.32;52.45
75513;BME280;64090;49.770;18.760;2023-07-02T10:01:41;96847.16;;;27.03;48.26
75513;BME280;64090;49.770;18.760;2023-07-02T10:04:48;96849.22;;;26.72;49.79
75513;BME280;64090;49.770;18.760;2023-07-02T10:08:11;96849.20;;;26.54;50.14
75513;BME280;64090;49.770;18.760;2023-07-02T10:11:18;96846.27;;;26.72;51.55
75513;BME280;64090;49.770;18.760;2023-07-02T10:14:41;96844.45;;;26.95;50.64
75513;BME280;64090;49.770;18.760;2023-07-02T10:18:00;96844.04;;;26.98;50.07
75513;BME280;64090;49.770;18.760;2023-07-02T10:21:22;96842.15;;;26.74;50.34
75513;BME280;64090;49.770;18.760;2023-07-02T10:24:27;96838.26;;;26.75;51.33
75513;BME280;64090;49.770;18.760;2023-07-02T10:27:42;96831.96;;;26.63;52.09
75513;BME280;64090;49.770;18.760;2023-07-02T10:30:46;96826.91;;;26.65;51.34
75513;BME280;64090;49.770;18.760;2023-07-02T10:34:08;96827.31;;;26.66;51.41
75513;BME280;64090;49.770;18.760;2023-07-02T10:37:18;96830.10;;;26.41;49.66
75513;BME280;64090;49.770;18.760;2023-07-02T10:40:22;96829.80;;;26.19;49.68
75513;BME280;64090;49.770;18.760;2023-07-02T10:43:31;96826.64;;;26.46;52.16
75513;BME280;64090;49.770;18.760;2023-07-02T10:47:03;96822.73;;;26.62;49.19
75513;BME280;64090;49.770;18.760;2023-07-02T10:50:33;96821.16;;;26.84;48.04
75513;BME280;64090;49.770;18.760;2023-07-02T10:54:02;96822.30;;;26.77;49.49
75513;BME280;64090;49.770;18.760;2023-07-02T10:57:09;96819.44;;;27.14;49.02
75513;BME280;64090;49.770;18.760;2023-07-02T11:00:18;96817.01;;;26.88;48.29
75513;BME280;64090;49.770;18.760;2023-07-02T11:03:44;96814.70;;;27.09;49.22
75513;BME280;64090;49.770;18.760;2023-07-02T11:07:02;96809.67;;;27.08;48.67
75513;BME280;64090;49.770;18.760;2023-07-02T11:10:07;96809.55;;;27.26;49.70
75513;BME280;64090;49.770;18.760;2023-07-02T11:13:19;96803.08;;;27.32;49.92
75513;BME280;64090;49.770;18.760;2023-07-02T11:16:28;96799.02;;;27.28;50.36
75513;BME280;64090;49.770;18.760;2023-07-02T11:19:34;96808.02;;;26.90;50.31
75513;BME280;64090;49.770;18.760;2023-07-02T11:22:49;96811.91;;;26.71;49.76
75513;BME280;64090;49.770;18.760;2023-07-02T11:25:57;96803.95;;;26.43;50.23
75513;BME280;64090;49.770;18.760;2023-07-02T11:29:01;96802.62;;;26.49;51.16
75513;BME280;64090;49.770;18.760;2023-07-02T11:32:11;96794.52;;;26.55;51.70
75513;BME280;64090;49.770;18.760;2023-07-02T11:35:22;96800.27;;;26.55;51.04
75513;BME280;64090;49.770;18.760;2023-07-02T11:38:38;96800.17;;;26.63;52.27
75513;BME280;64090;49.770;18.760;2023-07-02T11:41:45;96802.70;;;26.66;50.52
75513;BME280;64090;49.770;18.760;2023-07-02T11:44:52;96803.41;;;26.52;49.90
75513;BME280;64090;49.770;18.760;2023-07-02T11:48:00;96804.04;;;26.48;48.51
75513;BME280;64090;49.770;18.760;2023-07-02T11:51:08;96804.48;;;26.65;49.99
75513;BME280;64090;49.770;18.760;2023-07-02T11:54:18;96806.04;;;26.95;50.06
75513;BME280;64090;49.770;18.760;2023-07-02T11:57:22;96804.30;;;27.53;49.67
75513;BME280;64090;49.770;18.760;2023-07-02T12:00:27;96797.33;;;27.63;47.48
75513;BME280;64090;49.770;18.760;2023-07-02T12:03:36;96795.19;;;27.50;47.59
75513;BME280;64090;49.770;18.760;2023-07-02T12:06:53;96799.98;;;27.77;47.72
75513;BME280;64090;49.770;18.760;2023-07-02T12:09:58;96795.02;;;27.97;47.69
75513;BME280;64090;49.770;18.760;2023-07-02T12:13:02;96796.96;;;27.97;45.95
75513;BME280;64090;49.770;18.760;2023-07-02T12:16:07;96798.09;;;27.96;45.85
75513;BME280;64090;49.770;18.760;2023-07-02T12:19:12;96797.60;;;27.87;46.37
75513;BME280;64090;49.770;18.760;2023-07-02T12:22:23;96801.33;;;27.99;46.33
75513;BME280;64090;49.770;18.760;2023-07-02T12:25:28;96802.73;;;28.17;45.67
75513;BME280;64090;49.770;18.760;2023-07-02T12:28:36;96800.95;;;28.35;44.26
75513;BME280;64090;49.770;18.760;2023-07-02T12:31:49;96806.40;;;28.35;44.23
75513;BME280;64090;49.770;18.760;2023-07-02T12:35:07;96804.88;;;28.35;45.49
75513;BME280;64090;49.770;18.760;2023-07-02T12:38:12;96814.27;;;28.64;45.45
75513;BME280;64090;49.770;18.760;2023-07-02T12:41:29;96813.70;;;28.79;44.92
75513;BME280;64090;49.770;18.760;2023-07-02T12:44:33;96805.09;;;28.42;44.69
75513;BME280;64090;49.770;18.760;2023-07-02T12:47:41;96801.96;;;28.19;45.67
75513;BME280;64090;49.770;18.760;2023-07-02T12:51:04;96810.64;;;28.05;45.63
75513;BME280;64090;49.770;18.760;2023-07-02T12:54:11;96810.74;;;28.00;45.54
75513;BME280;64090;49.770;18.760;2023-07-02T12:57:14;96808.03;;;27.82;45.29
75513;BME280;64090;49.770;18.760;2023-07-02T13:00:22;96817.71;;;27.38;44.92
75513;BME280;64090;49.770;18.760;2023-07-02T13:03:31;96820.25;;;27.03;45.12
75513;BME280;64090;49.770;18.760;2023-07-02T13:06:38;96829.98;;;26.38;45.68
75513;BME280;64090;49.770;18.760;2023-07-02T13:09:45;96855.50;;;25.70;46.69
75513;BME280;64090;49.770;18.760;2023-07-02T13:12:59;96865.60;;;24.63;50.66
75513;BME280;64090;49.770;18.760;2023-07-02T13:16:21;96882.60;;;23.26;55.13
75513;BME280;64090;49.770;18.760;2023-07-02T13:19:28;96897.40;;;22.14;58.64
75513;BME280;64090;49.770;18.760;2023-07-02T13:22:39;96914.27;;;21.32;61.32
75513;BME280;64090;49.770;18.760;2023-07-02T13:25:43;96924.94;;;20.70;63.74
75513;BME280;64090;49.770;18.760;2023-07-02T13:28:48;96925.46;;;20.17;66.75
75513;BME280;64090;49.770;18.760;2023-07-02T13:31:56;96925.16;;;19.65;69.15
75513;BME280;64090;49.770;18.760;2023-07-02T13:35:01;96921.89;;;19.30;70.65
75513;BME280;64090;49.770;18.760;2023-07-02T13:38:11;96924.22;;;19.21;71.72
75513;BME280;64090;49.770;18.760;2023-07-02T13:41:16;96922.11;;;19.30;71.81
75513;BME280;64090;49.770;18.760;2023-07-02T13:44:20;96925.58;;;19.53;71.69
75513;BME280;64090;49.770;18.760;2023-07-02T13:47:26;96931.48;;;19.94;70.29
75513;BME280;64090;49.770;18.760;2023-07-02T13:50:47;96933.80;;;20.59;69.32
75513;BME280;64090;49.770;18.760;2023-07-02T13:54:19;96933.45;;;21.44;66.83
75513;BME280;64090;49.770;18.760;2023-07-02T13:57:26;96930.51;;;21.85;66.86
75513;BME280;64090;49.770;18.760;2023-07-02T14:00:31;96927.14;;;22.12;64.83
75513;BME280;64090;49.770;18.760;2023-07-02T14:03:37;96923.75;;;22.11;64.00
75513;BME280;64090;49.770;18.760;2023-07-02T14:06:43;96919.00;;;22.25;64.40
75513;BME280;64090;49.770;18.760;2023-07-02T14:10:03;96920.45;;;22.45;62.69
75513;BME280;64090;49.770;18.760;2023-07-02T14:13:10;96923.31;;;22.43;62.10
75513;BME280;64090;49.770;18.760;2023-07-02T14:16:14;96911.95;;;22.45;62.34
75513;BME280;64090;49.770;18.760;2023-07-02T14:19:43;96914.27;;;22.67;61.73
75513;BME280;64090;49.770;18.760;2023-07-02T14:22:46;96912.95;;;22.60;59.92
75513;BME280;64090;49.770;18.760;2023-07-02T14:25:59;96909.96;;;22.55;59.25
75513;BME280;64090;49.770;18.760;2023-07-02T14:29:02;96909.42;;;22.52;59.43
75513;BME280;64090;49.770;18.760;2023-07-02T14:32:06;96910.63;;;22.41;59.28
75513;BME280;64090;49.770;18.760;2023-07-02T14:35:27;96913.36;;;22.47;59.00
75513;BME280;64090;49.770;18.760;2023-07-02T14:38:35;96916.39;;;22.40;58.93
75513;BME280;64090;49.770;18.760;2023-07-02T14:41:39;96911.89;;;22.29;59.12
75513;BME280;64090;49.770;18.760;2023-07-02T14:44:50;96908.63;;;22.40;59.06
75513;BME280;64090;49.770;18.760;2023-07-02T14:47:55;96910.12;;;22.57;58.14
75513;BME280;64090;49.770;18.760;2023-07-02T14:51:05;96909.71;;;22.99;57.47
75513;BME280;64090;49.770;18.760;2023-07-02T14:54:10;96911.05;;;23.24;56.11
75513;BME280;64090;49.770;18.760;2023-07-02T14:57:15;96908.92;;;23.33;55.68
75513;BME280;64090;49.770;18.760;2023-07-02T15:00:21;96910.42;;;23.74;53.96
75513;BME280;64090;49.770;18.760;2023-07-02T15:03:27;96909.02;;;24.19;52.99
75513;BME280;64090;49.770;18.760;2023-07-02T15:06:51;96909.40;;;24.19;50.82
75513;BME280;64090;49.770;18.760;2023-07-02T15:10:05;96910.08;;;24.00;51.95
75513;BME280;64090;49.770;18.760;2023-07-02T15:13:28;96908.60;;;24.34;52.52
75513;BME280;64090;49.770;18.760;2023-07-02T15:16:37;96909.25;;;24.66;52.07
75513;BME280;64090;49.770;18.760;2023-07-02T15:19:41;96908.59;;;24.71;51.20
75513;BME280;64090;49.770;18.760;2023-07-02T15:22:48;96907.49;;;25.04;51.63
75513;BME280;64090;49.770;18.760;2023-07-02T15:26:00;96908.20;;;25.17;51.38
75513;BME280;64090;49.770;18.760;2023-07-02T15:29:09;96902.52;;;25.16;49.92
75513;BME280;64090;49.770;18.760;2023-07-02T15:32:22;96904.23;;;24.97;49.57
75513;BME280;64090;49.770;18.760;2023-07-02T15:35:26;96908.71;;;24.89;49.48
75513;BME280;64090;49.770;18.760;2023-07-02T15:38:37;96902.58;;;24.71;49.42
75513;BME280;64090;49.770;18.760;2023-07-02T15:41:43;96900.13;;;24.52;49.25
75513;BME280;64090;49.770;18.760;2023-07-02T15:44:49;96898.86;;;24.33;50.30
75513;BME280;64090;49.770;18.760;2023-07-02T15:48:02;96902.02;;;24.17;49.84
75513;BME280;64090;49.770;18.760;2023-07-02T15:51:25;96906.95;;;23.81;50.67
75513;BME280;64090;49.770;18.760;2023-07-02T15:54:41;96904.81;;;23.84;51.47
75513;BME280;64090;49.770;18.760;2023-07-02T15:57:49;96902.55;;;23.98;51.19
75513;BME280;64090;49.770;18.760;2023-07-02T16:01:11;96902.62;;;24.07;51.20
75513;BME280;64090;49.770;18.760;2023-07-02T16:04:15;96904.80;;;24.16;51.24
75513;BME280;64090;49.770;18.760;2023-07-02T16:07:23;96903.34;;;24.33;51.36
75513;BME280;64090;49.770;18.760;2023-07-02T16:10:31;96906.96;;;24.47;51.86
75513;BME280;64090;49.770;18.760;2023-07-02T16:13:36;96911.08;;;24.65;50.78
75513;BME280;64090;49.770;18.760;2023-07-02T16:16:48;96910.24;;;24.80;50.89
75513;BME280;64090;49.770;18.760;2023-07-02T16:19:58;96910.85;;;24.96;51.71
75513;BME280;64090;49.770;18.760;2023-07-02T16:23:06;96916.56;;;24.76;51.46